Terminal Aerodrome Forecast
Issued by NWS Louisville, KY

Home | Current Version | Previous Version | Text Only | Print | Product List | Glossary On
Versions: 1 2 3 4 5 6 7 8 9 10 11 12
000
FTUS43 KLMK 210500
TAFBWG
TAF
KBWG 210520Z 2106/2206 00000KT P6SM BKN250
     FM211400 23010KT P6SM SCT060 BKN150
     FM220000 21006KT P6SM VCSH BKN060=

USA.gov is the U.S. government's official web portal to all federal, state and local government web resources and services.